Time;durP1;ratioP1;P1;durP2;ratioP2;P2;SDS_P1;SDS_P2;PMS_P1;PMS_P2;Temp;Humidity;BMP_temperature;BMP_pressure;BME280_temperature;BME280_humidity;BME280_pressure;Samples;Min_cycle;Max_cycle;Signal;HPM_P1;HPM_P2
2023/06/20 00:00:25;;;;;;;;;;;20.60;72.00;;;;;;5049880;28;785;-71
2023/06/20 00:02:50;;;;;;;;;;;20.60;72.00;;;;;;5050987;28;926;-71
2023/06/20 00:05:16;;;;;;;;;;;20.60;72.00;;;;;;5048766;28;1258;-70
2023/06/20 00:07:41;;;;;;;;;;;20.60;72.00;;;;;;5051526;28;808;-70
2023/06/20 00:10:08;;;;;;;;;;;20.60;72.10;;;;;;5048323;28;869;-71
2023/06/20 00:12:34;;;;;;;;;;;20.60;72.00;;;;;;5050413;28;843;-70
2023/06/20 00:14:59;;;;;;;;;;;20.60;72.00;;;;;;5050761;28;1268;-70
2023/06/20 00:17:25;;;;;;;;;;;20.60;72.00;;;;;;5049785;28;1902;-71
2023/06/20 00:19:51;;;;;;;;;;;20.60;72.00;;;;;;5050199;28;915;-72
2023/06/20 00:22:16;;;;;;;;;;;20.60;72.00;;;;;;5043404;28;872;-69
2023/06/20 00:24:42;;;;;;;;;;;20.60;72.00;;;;;;5049413;28;1259;-70
2023/06/20 00:27:07;;;;;;;;;;;20.60;72.00;;;;;;5051047;28;1413;-71
2023/06/20 00:29:33;;;;;;;;;;;20.60;72.10;;;;;;5047300;28;1049;-70
2023/06/20 00:31:58;;;;;;;;;;;20.60;72.00;;;;;;5046232;28;781;-70
2023/06/20 00:34:24;;;;;;;;;;;20.60;72.00;;;;;;5044473;28;1397;-71
2023/06/20 00:36:49;;;;;;;;;;;20.60;72.00;;;;;;5050038;28;860;-72
2023/06/20 00:39:16;;;;;;;;;;;20.60;72.10;;;;;;5049453;28;1898;-70
2023/06/20 00:41:41;;;;;;;;;;;20.60;72.10;;;;;;5037421;28;1389;-71
2023/06/20 00:44:07;;;;;;;;;;;20.60;72.10;;;;;;5049758;28;1390;-71
2023/06/20 00:46:32;;;;;;;;;;;20.60;72.10;;;;;;5048232;28;784;-71
2023/06/20 00:48:58;;;;;;;;;;;20.60;72.10;;;;;;5049056;28;900;-72
2023/06/20 00:51:24;;;;;;;;;;;20.60;72.00;;;;;;5046098;28;1018;-71
2023/06/20 00:53:49;;;;;;;;;;;20.60;72.10;;;;;;5045380;28;1548;-71
2023/06/20 00:56:15;;;;;;;;;;;20.60;72.10;;;;;;5050360;28;1259;-70
2023/06/20 00:58:41;;;;;;;;;;;20.60;72.10;;;;;;5053583;28;1910;-70
2023/06/20 01:01:06;;;;;;;;;;;20.60;72.10;;;;;;5054301;28;1026;-72
2023/06/20 01:03:32;;;;;;;;;;;20.60;72.10;;;;;;5052406;28;920;-70
2023/06/20 01:06:04;;;;;;;;;;;20.60;72.00;;;;;;5051898;28;1534;-69
2023/06/20 01:08:44;;;;;;;;;;;20.60;72.00;;;;;;5051899;28;823;-70
2023/06/20 01:11:10;;;;;;;;;;;20.60;72.10;;;;;;5050685;28;891;-70
2023/06/20 01:13:54;;;;;;;;;;;20.60;72.10;;;;;;5053128;28;1010;-70
2023/06/20 01:16:25;;;;;;;;;;;20.60;72.10;;;;;;5054847;28;1539;-70
2023/06/20 01:19:11;;;;;;;;;;;20.60;72.10;;;;;;5047122;28;1961;-71
2023/06/20 01:21:38;;;;;;;;;;;20.60;72.10;;;;;;5051825;28;852;-71
2023/06/20 01:24:10;;;;;;;;;;;20.60;72.10;;;;;;5049899;28;856;-71
2023/06/20 01:26:45;;;;;;;;;;;20.60;72.10;;;;;;5045544;28;999;-70
2023/06/20 01:29:16;;;;;;;;;;;20.50;72.00;;;;;;5053096;28;1457;-71
2023/06/20 01:31:44;;;;;;;;;;;20.60;72.10;;;;;;5053074;28;892;-70
2023/06/20 01:34:12;;;;;;;;;;;20.60;72.10;;;;;;5051954;28;1278;-70
2023/06/20 01:36:37;;;;;;;;;;;20.60;72.10;;;;;;5046777;28;832;-70
2023/06/20 01:39:05;;;;;;;;;;;20.60;72.10;;;;;;5051563;28;1973;-71
2023/06/20 01:41:31;;;;;;;;;;;20.60;72.10;;;;;;5051338;28;848;-71
2023/06/20 01:43:56;;;;;;;;;;;20.50;72.00;;;;;;5049074;28;883;-71
2023/06/20 01:46:22;;;;;;;;;;;20.60;72.10;;;;;;5051212;28;1580;-70
2023/06/20 01:48:47;;;;;;;;;;;20.50;72.00;;;;;;5048765;28;966;-70
2023/06/20 01:51:13;;;;;;;;;;;20.60;72.10;;;;;;5046936;28;867;-71
2023/06/20 01:53:39;;;;;;;;;;;20.60;72.10;;;;;;5051117;28;902;-71
2023/06/20 01:56:04;;;;;;;;;;;20.60;72.10;;;;;;5048572;28;1366;-70
2023/06/20 01:58:30;;;;;;;;;;;20.60;72.10;;;;;;5050384;28;1914;-71
2023/06/20 02:00:55;;;;;;;;;;;20.50;72.00;;;;;;5048791;28;1211;-70
2023/06/20 02:03:21;;;;;;;;;;;20.60;72.10;;;;;;5050238;28;884;-71
2023/06/20 02:05:46;;;;;;;;;;;20.60;72.10;;;;;;5049343;28;1342;-71
2023/06/20 02:08:12;;;;;;;;;;;20.60;72.10;;;;;;5051615;28;1066;-70
2023/06/20 02:10:37;;;;;;;;;;;20.50;72.00;;;;;;5045236;28;1015;-71
2023/06/20 02:13:03;;;;;;;;;;;20.60;72.10;;;;;;5049576;28;792;-70
2023/06/20 02:15:28;;;;;;;;;;;20.50;72.00;;;;;;5046429;28;1280;-71
2023/06/20 02:17:53;;;;;;;;;;;20.50;72.00;;;;;;5046022;28;1949;-71
2023/06/20 02:20:19;;;;;;;;;;;20.60;72.10;;;;;;5048025;28;891;-71
2023/06/20 02:22:45;;;;;;;;;;;20.60;72.10;;;;;;5049429;28;869;-72
2023/06/20 02:25:12;;;;;;;;;;;20.50;72.10;;;;;;5048430;28;1255;-72
2023/06/20 02:27:39;;;;;;;;;;;20.50;72.10;;;;;;5045386;28;1483;-72
2023/06/20 02:30:06;;;;;;;;;;;20.60;72.10;;;;;;5050369;28;825;-71
2023/06/20 02:32:31;;;;;;;;;;;20.60;72.10;;;;;;5050808;28;961;-72
2023/06/20 02:34:56;;;;;;;;;;;20.50;72.10;;;;;;5049944;28;1283;-72
2023/06/20 02:37:22;;;;;;;;;;;20.60;72.10;;;;;;5050976;28;1898;-70
2023/06/20 02:39:48;;;;;;;;;;;20.60;72.10;;;;;;5049920;28;943;-71
2023/06/20 02:42:13;;;;;;;;;;;20.60;72.10;;;;;;5048374;28;922;-71
2023/06/20 02:44:39;;;;;;;;;;;20.60;72.10;;;;;;5048970;28;1391;-72
2023/06/20 02:47:28;;;;;;;;;;;20.60;72.20;;;;;;5050523;28;1356;-71
2023/06/20 02:50:15;;;;;;;;;;;20.60;72.10;;;;;;5041795;28;836;-71
2023/06/20 02:52:40;;;;;;;;;;;20.60;72.10;;;;;;5051412;28;850;-72
2023/06/20 02:55:14;;;;;;;;;;;20.60;72.10;;;;;;5052248;28;1288;-70
2023/06/20 02:57:43;;;;;;;;;;;20.60;72.10;;;;;;5050361;28;1898;-70
2023/06/20 03:00:09;;;;;;;;;;;20.60;72.10;;;;;;5050580;28;887;-70
2023/06/20 03:02:35;;;;;;;;;;;20.50;72.10;;;;;;5050189;28;938;-70
2023/06/20 03:05:00;;;;;;;;;;;20.60;72.10;;;;;;5050961;28;1312;-70
2023/06/20 03:07:26;;;;;;;;;;;20.50;72.10;;;;;;5049539;28;1288;-71
2023/06/20 03:09:51;;;;;;;;;;;20.50;72.10;;;;;;5049661;28;1034;-72
2023/06/20 03:12:17;;;;;;;;;;;20.60;72.10;;;;;;5044761;28;868;-70
2023/06/20 03:14:42;;;;;;;;;;;20.50;72.10;;;;;;5050146;28;1276;-70
2023/06/20 03:17:07;;;;;;;;;;;20.50;72.10;;;;;;5050728;28;872;-70
2023/06/20 03:19:33;;;;;;;;;;;20.50;72.10;;;;;;5049615;28;1897;-71
2023/06/20 03:21:58;;;;;;;;;;;20.60;72.20;;;;;;5047633;28;915;-70
2023/06/20 03:24:24;;;;;;;;;;;20.50;72.10;;;;;;5050774;28;1260;-71
2023/06/20 03:26:49;;;;;;;;;;;20.50;72.10;;;;;;5041568;28;1274;-70
2023/06/20 03:29:15;;;;;;;;;;;20.50;72.10;;;;;;5052705;28;825;-70
2023/06/20 03:31:40;;;;;;;;;;;20.50;72.10;;;;;;5051409;28;872;-70
2023/06/20 03:34:06;;;;;;;;;;;20.50;72.10;;;;;;5050312;28;870;-71
2023/06/20 03:36:31;;;;;;;;;;;20.50;72.10;;;;;;5050871;28;1207;-71
2023/06/20 03:38:56;;;;;;;;;;;20.50;72.10;;;;;;5049672;28;1910;-71
2023/06/20 03:41:22;;;;;;;;;;;20.50;72.10;;;;;;5051781;28;999;-69
2023/06/20 03:43:47;;;;;;;;;;;20.50;72.10;;;;;;5050681;28;781;-70
2023/06/20 03:46:13;;;;;;;;;;;20.50;72.20;;;;;;5050853;28;1363;-71
2023/06/20 03:48:38;;;;;;;;;;;20.60;72.20;;;;;;5050892;28;1014;-70
2023/06/20 03:51:04;;;;;;;;;;;20.50;72.10;;;;;;5046349;28;813;-70
2023/06/20 03:53:29;;;;;;;;;;;20.50;72.10;;;;;;5045372;28;1326;-71
2023/06/20 03:55:55;;;;;;;;;;;20.60;72.20;;;;;;5051590;28;1296;-70
2023/06/20 03:58:20;;;;;;;;;;;20.60;72.20;;;;;;5051020;28;1914;-70
2023/06/20 04:00:46;;;;;;;;;;;20.50;72.10;;;;;;5050522;28;860;-70
2023/06/20 04:03:11;;;;;;;;;;;20.50;72.10;;;;;;5050028;28;872;-70
2023/06/20 04:05:37;;;;;;;;;;;20.50;72.10;;;;;;5047333;28;1278;-71
2023/06/20 04:08:03;;;;;;;;;;;20.50;72.10;;;;;;5050933;28;1205;-71
2023/06/20 04:10:28;;;;;;;;;;;20.50;72.10;;;;;;5048584;28;1260;-71
2023/06/20 04:12:54;;;;;;;;;;;20.50;72.10;;;;;;5051267;28;804;-72
2023/06/20 04:15:19;;;;;;;;;;;20.50;72.10;;;;;;5049061;28;1278;-72
2023/06/20 04:17:45;;;;;;;;;;;20.50;72.10;;;;;;5046269;28;1963;-72
2023/06/20 04:20:13;;;;;;;;;;;20.50;72.10;;;;;;5044542;28;1201;-72
2023/06/20 04:22:44;;;;;;;;;;;20.50;72.20;;;;;;5048938;28;848;-71
2023/06/20 04:25:13;;;;;;;;;;;20.50;72.10;;;;;;5050775;28;1350;-72
2023/06/20 04:27:39;;;;;;;;;;;20.50;72.10;;;;;;5047729;28;1191;-72
2023/06/20 04:30:05;;;;;;;;;;;20.50;72.10;;;;;;5048273;28;863;-71
2023/06/20 04:32:31;;;;;;;;;;;20.50;72.10;;;;;;5045038;28;980;-70
2023/06/20 04:34:56;;;;;;;;;;;20.50;72.10;;;;;;5046652;28;1287;-72
2023/06/20 04:37:22;;;;;;;;;;;20.50;72.10;;;;;;5047096;28;1902;-72
2023/06/20 04:39:47;;;;;;;;;;;20.50;72.10;;;;;;5047627;28;837;-72
2023/06/20 04:42:13;;;;;;;;;;;20.50;72.10;;;;;;5040527;28;1722;-72
2023/06/20 04:44:38;;;;;;;;;;;20.50;72.10;;;;;;5047659;28;1308;-72
2023/06/20 04:47:04;;;;;;;;;;;20.50;72.10;;;;;;5043828;28;812;-72
2023/06/20 04:49:29;;;;;;;;;;;20.50;72.20;;;;;;5049608;28;1069;-72
2023/06/20 04:51:57;;;;;;;;;;;20.50;72.10;;;;;;5048538;28;855;-72
2023/06/20 04:54:23;;;;;;;;;;;20.50;72.10;;;;;;5047918;28;1329;-72
2023/06/20 04:56:48;;;;;;;;;;;20.50;72.10;;;;;;5047609;28;922;-71
2023/06/20 04:59:14;;;;;;;;;;;20.50;72.10;;;;;;5047744;28;1975;-71
2023/06/20 05:01:39;;;;;;;;;;;20.50;72.10;;;;;;5045152;28;816;-72
2023/06/20 05:04:05;;;;;;;;;;;20.50;72.10;;;;;;5046458;28;903;-70
2023/06/20 05:06:30;;;;;;;;;;;20.50;72.20;;;;;;5049203;28;1318;-70
2023/06/20 05:08:55;;;;;;;;;;;20.50;72.20;;;;;;5047531;28;930;-71
2023/06/20 05:11:21;;;;;;;;;;;20.50;72.20;;;;;;5045804;28;1022;-71
2023/06/20 05:13:46;;;;;;;;;;;20.50;72.20;;;;;;5045984;28;954;-71
2023/06/20 05:16:12;;;;;;;;;;;20.50;72.20;;;;;;5047750;28;1280;-71
2023/06/20 05:18:37;;;;;;;;;;;20.50;72.20;;;;;;5048629;28;1905;-70
2023/06/20 05:21:03;;;;;;;;;;;20.50;72.00;;;;;;5046287;28;799;-68
2023/06/20 05:23:28;;;;;;;;;;;20.50;72.00;;;;;;5044054;28;1893;-67
2023/06/20 05:25:54;;;;;;;;;;;20.50;72.10;;;;;;5046837;28;1324;-67
2023/06/20 05:28:19;;;;;;;;;;;20.50;72.30;;;;;;5045291;28;1385;-66
2023/06/20 05:30:45;;;;;;;;;;;20.60;72.40;;;;;;5048040;28;956;-67
2023/06/20 05:33:10;;;;;;;;;;;20.60;72.40;;;;;;5046784;28;875;-66
2023/06/20 05:35:36;;;;;;;;;;;20.60;72.40;;;;;;5036719;28;1342;-68
2023/06/20 05:38:03;;;;;;;;;;;20.60;72.50;;;;;;5046018;28;1902;-68
2023/06/20 05:40:29;;;;;;;;;;;20.60;72.50;;;;;;5047186;28;872;-67
2023/06/20 05:42:54;;;;;;;;;;;20.60;72.60;;;;;;5049512;28;931;-67
2023/06/20 05:45:20;;;;;;;;;;;20.60;72.50;;;;;;5049994;28;1274;-67
2023/06/20 05:47:45;;;;;;;;;;;20.60;72.60;;;;;;5050962;28;1056;-68
2023/06/20 05:50:10;;;;;;;;;;;20.60;72.50;;;;;;5052986;28;836;-68
2023/06/20 05:52:36;;;;;;;;;;;20.60;72.50;;;;;;5052549;28;999;-66
2023/06/20 05:55:02;;;;;;;;;;;20.60;72.50;;;;;;5049238;28;1333;-67
2023/06/20 05:57:27;;;;;;;;;;;20.60;72.50;;;;;;5048887;28;1922;-67
2023/06/20 05:59:53;;;;;;;;;;;20.60;72.50;;;;;;5048659;28;1171;-68
2023/06/20 06:02:20;;;;;;;;;;;20.60;72.50;;;;;;5050689;28;1311;-67
2023/06/20 06:04:47;;;;;;;;;;;20.60;72.50;;;;;;5047406;28;1270;-67
2023/06/20 06:07:12;;;;;;;;;;;20.70;72.60;;;;;;5050963;28;871;-68
2023/06/20 06:09:37;;;;;;;;;;;20.70;72.70;;;;;;5052380;28;1082;-68
2023/06/20 06:12:03;;;;;;;;;;;20.70;72.60;;;;;;5049677;28;837;-66
2023/06/20 06:14:29;;;;;;;;;;;20.70;72.70;;;;;;5051346;28;1349;-67
2023/06/20 06:16:55;;;;;;;;;;;20.60;72.70;;;;;;5051963;28;851;-67
2023/06/20 06:19:20;;;;;;;;;;;20.60;72.70;;;;;;5048444;28;1894;-68
2023/06/20 06:21:47;;;;;;;;;;;20.70;72.70;;;;;;5051277;28;799;-67
2023/06/20 06:24:12;;;;;;;;;;;20.70;72.70;;;;;;5048685;28;1357;-67
2023/06/20 06:26:38;;;;;;;;;;;20.60;72.60;;;;;;5050925;28;1514;-67
2023/06/20 06:29:06;;;;;;;;;;;20.70;72.70;;;;;;5051162;28;1380;-67
2023/06/20 06:31:32;;;;;;;;;;;20.60;72.60;;;;;;5049219;28;886;-67
2023/06/20 06:33:57;;;;;;;;;;;20.60;72.60;;;;;;5046535;28;898;-66
2023/06/20 06:36:24;;;;;;;;;;;20.70;73.10;;;;;;5049204;28;1493;-67
2023/06/20 06:38:50;;;;;;;;;;;20.60;72.70;;;;;;5048605;28;1902;-67
2023/06/20 06:41:16;;;;;;;;;;;20.70;72.70;;;;;;5051132;28;866;-67
2023/06/20 06:43:42;;;;;;;;;;;20.70;72.80;;;;;;5050266;28;1282;-68
2023/06/20 06:46:07;;;;;;;;;;;20.70;72.70;;;;;;5049550;28;1279;-68
2023/06/20 06:48:33;;;;;;;;;;;20.70;72.80;;;;;;5046372;28;1077;-68
2023/06/20 06:50:58;;;;;;;;;;;20.70;72.80;;;;;;5036859;28;840;-68
2023/06/20 06:53:24;;;;;;;;;;;20.70;72.80;;;;;;5050187;28;820;-68
2023/06/20 06:55:50;;;;;;;;;;;20.70;72.80;;;;;;5047800;28;1328;-68
2023/06/20 06:58:15;;;;;;;;;;;20.70;72.80;;;;;;5049693;28;1966;-67
2023/06/20 07:00:41;;;;;;;;;;;20.70;72.80;;;;;;5050252;28;947;-67
2023/06/20 07:03:08;;;;;;;;;;;20.70;72.90;;;;;;5049574;28;1027;-67
2023/06/20 07:05:34;;;;;;;;;;;20.70;72.90;;;;;;5048744;28;1370;-67
2023/06/20 07:07:59;;;;;;;;;;;20.70;73.00;;;;;;5049094;28;797;-67
2023/06/20 07:10:25;;;;;;;;;;;20.70;73.00;;;;;;5033651;28;942;-67
2023/06/20 07:12:50;;;;;;;;;;;20.70;73.00;;;;;;5047822;28;900;-67
2023/06/20 07:15:16;;;;;;;;;;;20.70;73.00;;;;;;5049268;28;1274;-67
2023/06/20 07:17:41;;;;;;;;;;;20.70;73.00;;;;;;5046695;28;1910;-67
2023/06/20 07:20:09;;;;;;;;;;;20.70;73.00;;;;;;5049635;28;800;-67
2023/06/20 07:22:34;;;;;;;;;;;20.70;73.10;;;;;;5050246;28;882;-67
2023/06/20 07:25:00;;;;;;;;;;;20.70;73.10;;;;;;5048652;28;1972;-67
2023/06/20 07:27:25;;;;;;;;;;;20.80;73.20;;;;;;5049444;28;1224;-67
2023/06/20 07:29:51;;;;;;;;;;;20.70;73.20;;;;;;5047256;28;1431;-67
2023/06/20 07:32:18;;;;;;;;;;;20.70;73.20;;;;;;5049401;28;1228;-67
2023/06/20 07:34:43;;;;;;;;;;;20.80;73.70;;;;;;5044919;28;1254;-68
2023/06/20 07:37:09;;;;;;;;;;;20.80;74.60;;;;;;5041686;28;1862;-68
2023/06/20 07:39:38;;;;;;;;;;;20.80;74.80;;;;;;5048757;28;2138;-68
2023/06/20 07:42:03;;;;;;;;;;;20.80;74.90;;;;;;5049152;28;1289;-68
2023/06/20 07:44:29;;;;;;;;;;;20.80;74.00;;;;;;5050247;28;1359;-68
2023/06/20 07:46:54;;;;;;;;;;;20.80;73.80;;;;;;5049641;28;1229;-68
2023/06/20 07:49:19;;;;;;;;;;;20.80;74.00;;;;;;5046361;28;1277;-68
2023/06/20 07:51:46;;;;;;;;;;;20.80;74.10;;;;;;5046843;28;1966;-68
2023/06/20 07:54:14;;;;;;;;;;;20.90;74.40;;;;;;5047541;28;1287;-68
2023/06/20 07:56:39;;;;;;;;;;;20.90;74.60;;;;;;5043877;28;1556;-68
2023/06/20 07:59:05;;;;;;;;;;;20.90;74.70;;;;;;5046526;28;1906;-68
2023/06/20 08:01:31;;;;;;;;;;;20.90;74.70;;;;;;5047260;28;969;-68
2023/06/20 08:03:56;;;;;;;;;;;20.90;74.60;;;;;;5045077;28;1283;-68
2023/06/20 08:06:22;;;;;;;;;;;20.90;74.80;;;;;;5047534;28;1338;-68
2023/06/20 08:08:47;;;;;;;;;;;20.90;74.90;;;;;;5047229;28;912;-68
2023/06/20 08:11:13;;;;;;;;;;;20.90;74.60;;;;;;5048122;28;915;-68
2023/06/20 08:13:38;;;;;;;;;;;21.00;74.60;;;;;;5047533;28;843;-69
2023/06/20 08:16:04;;;;;;;;;;;20.90;75.00;;;;;;5047996;28;1370;-69
2023/06/20 08:18:29;;;;;;;;;;;21.00;75.10;;;;;;5047751;28;1960;-69
2023/06/20 08:20:55;;;;;;;;;;;21.00;75.10;;;;;;5046852;28;862;-68
2023/06/20 08:23:26;;;;;;;;;;;21.00;75.30;;;;;;5045786;28;883;-69
2023/06/20 08:25:52;;;;;;;;;;;21.00;75.60;;;;;;5041649;28;1382;-68
2023/06/20 08:28:18;;;;;;;;;;;21.00;75.80;;;;;;5045679;28;1041;-69
2023/06/20 08:30:43;;;;;;;;;;;21.00;76.00;;;;;;5048865;28;1338;-68
2023/06/20 08:33:08;;;;;;;;;;;21.00;76.20;;;;;;5048223;28;1311;-68
2023/06/20 08:35:34;;;;;;;;;;;21.00;76.40;;;;;;5048323;28;1276;-68
2023/06/20 08:37:59;;;;;;;;;;;21.00;76.70;;;;;;5046279;28;1914;-68
2023/06/20 08:40:25;;;;;;;;;;;21.00;76.90;;;;;;5047652;28;892;-68
2023/06/20 08:42:50;;;;;;;;;;;21.00;77.30;;;;;;5048492;28;1259;-69
2023/06/20 08:45:16;;;;;;;;;;;21.10;77.70;;;;;;5047017;28;1357;-69
2023/06/20 08:47:41;;;;;;;;;;;21.10;77.60;;;;;;5046176;28;872;-68
2023/06/20 08:50:07;;;;;;;;;;;21.10;77.70;;;;;;5044412;28;906;-68
2023/06/20 08:52:32;;;;;;;;;;;21.10;79.20;;;;;;5045650;28;1261;-68
2023/06/20 08:54:58;;;;;;;;;;;21.20;79.30;;;;;;5043192;28;2204;-68
2023/06/20 08:57:23;;;;;;;;;;;21.20;79.10;;;;;;5046730;28;1965;-69
2023/06/20 08:59:49;;;;;;;;;;;21.20;78.90;;;;;;5045534;28;1412;-69
2023/06/20 09:02:15;;;;;;;;;;;21.30;78.70;;;;;;5046105;28;1143;-68
2023/06/20 09:04:41;;;;;;;;;;;21.30;78.30;;;;;;5048768;28;1291;-68
2023/06/20 09:07:17;;;;;;;;;;;21.30;77.70;;;;;;5046644;28;814;-69
2023/06/20 09:09:42;;;;;;;;;;;21.30;77.50;;;;;;5046288;28;903;-69
2023/06/20 09:12:08;;;;;;;;;;;21.30;77.40;;;;;;5047257;28;856;-68
2023/06/20 09:14:34;;;;;;;;;;;21.30;77.20;;;;;;5048557;28;1250;-68
2023/06/20 09:16:59;;;;;;;;;;;21.20;77.20;;;;;;5049019;28;888;-68
2023/06/20 09:19:24;;;;;;;;;;;21.20;77.10;;;;;;5050159;28;1898;-68
2023/06/20 09:21:50;;;;;;;;;;;21.20;77.00;;;;;;5049497;28;882;-68
2023/06/20 09:24:17;;;;;;;;;;;21.20;77.10;;;;;;5050425;28;1241;-68
2023/06/20 09:26:43;;;;;;;;;;;21.30;77.10;;;;;;5051735;28;949;-69
2023/06/20 09:29:13;;;;;;;;;;;21.20;77.00;;;;;;5052602;28;1372;-69
2023/06/20 09:31:42;;;;;;;;;;;21.30;77.30;;;;;;5049294;28;2123;-69
2023/06/20 09:34:14;;;;;;;;;;;21.30;77.40;;;;;;5050590;28;2233;-68
2023/06/20 09:36:40;;;;;;;;;;;21.30;77.30;;;;;;5046890;28;1400;-69
2023/06/20 09:39:20;;;;;;;;;;;21.30;77.20;;;;;;5051272;28;1973;-68
2023/06/20 09:41:49;;;;;;;;;;;21.30;77.20;;;;;;5049195;28;816;-69
2023/06/20 09:44:15;;;;;;;;;;;21.20;77.20;;;;;;5050785;28;1318;-69
2023/06/20 09:46:41;;;;;;;;;;;21.20;77.20;;;;;;5050220;28;1950;-69
2023/06/20 09:49:06;;;;;;;;;;;21.20;77.20;;;;;;5051550;28;1211;-69
2023/06/20 09:51:37;;;;;;;;;;;21.20;77.40;;;;;;5049401;28;1246;-69
2023/06/20 09:54:07;;;;;;;;;;;21.20;77.30;;;;;;5048218;28;1253;-69
2023/06/20 09:56:38;;;;;;;;;;;21.20;77.40;;;;;;5040622;28;2143;-70
2023/06/20 09:59:04;;;;;;;;;;;21.20;77.40;;;;;;5047287;28;1982;-69
2023/06/20 10:01:29;;;;;;;;;;;21.20;77.20;;;;;;5050215;28;1427;-70
2023/06/20 10:03:55;;;;;;;;;;;21.30;78.00;;;;;;5050674;28;1340;-69
2023/06/20 10:06:21;;;;;;;;;;;21.30;78.00;;;;;;5051467;28;1350;-69
2023/06/20 10:08:46;;;;;;;;;;;21.30;77.90;;;;;;5047823;28;1356;-69
2023/06/20 10:11:12;;;;;;;;;;;21.30;77.70;;;;;;5048256;28;1690;-70
2023/06/20 10:13:38;;;;;;;;;;;21.30;77.50;;;;;;5049000;28;863;-69
2023/06/20 10:16:04;;;;;;;;;;;21.30;77.30;;;;;;5047490;28;1358;-70
2023/06/20 10:18:30;;;;;;;;;;;21.30;77.10;;;;;;5049910;28;1989;-70
2023/06/20 10:20:55;;;;;;;;;;;21.30;77.00;;;;;;5051306;28;983;-69
2023/06/20 10:23:22;;;;;;;;;;;21.30;77.30;;;;;;5051418;28;888;-69
2023/06/20 10:25:49;;;;;;;;;;;21.40;77.50;;;;;;5049557;28;1522;-69
2023/06/20 10:28:14;;;;;;;;;;;21.30;77.30;;;;;;5049807;28;911;-69
2023/06/20 10:30:49;;;;;;;;;;;21.40;77.20;;;;;;5043884;28;832;-70
2023/06/20 10:33:14;;;;;;;;;;;21.40;77.10;;;;;;5049318;28;892;-70
2023/06/20 10:35:49;;;;;;;;;;;21.40;77.00;;;;;;5049634;28;1298;-69
2023/06/20 10:38:14;;;;;;;;;;;21.50;76.90;;;;;;5050264;28;1902;-69
2023/06/20 10:40:40;;;;;;;;;;;21.50;76.80;;;;;;5049301;28;1018;-70
2023/06/20 10:43:06;;;;;;;;;;;21.50;76.70;;;;;;5049570;28;848;-70
2023/06/20 10:45:32;;;;;;;;;;;21.50;76.60;;;;;;5049426;28;1352;-70
2023/06/20 10:47:57;;;;;;;;;;;21.50;76.50;;;;;;5046031;28;823;-70
2023/06/20 10:50:23;;;;;;;;;;;21.50;76.40;;;;;;5049262;28;822;-70
2023/06/20 10:52:49;;;;;;;;;;;21.50;76.40;;;;;;5049631;28;923;-70
2023/06/20 10:55:14;;;;;;;;;;;21.50;76.40;;;;;;5047186;28;1284;-70
2023/06/20 10:57:46;;;;;;;;;;;21.50;76.30;;;;;;5049119;28;1902;-70
2023/06/20 11:00:17;;;;;;;;;;;21.50;76.30;;;;;;5048346;28;835;-70
2023/06/20 11:02:43;;;;;;;;;;;21.50;76.40;;;;;;5049531;28;844;-70
2023/06/20 11:05:09;;;;;;;;;;;21.50;76.40;;;;;;5051292;28;1776;-70
2023/06/20 11:07:35;;;;;;;;;;;21.50;76.40;;;;;;5048013;28;880;-70
2023/06/20 11:10:12;;;;;;;;;;;21.50;76.50;;;;;;5047685;28;847;-70
2023/06/20 11:12:41;;;;;;;;;;;21.50;76.50;;;;;;5053576;28;927;-70
2023/06/20 11:15:26;;;;;;;;;;;21.50;76.60;;;;;;5052449;28;1374;-70
2023/06/20 11:17:51;;;;;;;;;;;21.50;76.60;;;;;;5050392;28;1941;-71
2023/06/20 11:20:17;;;;;;;;;;;21.50;76.70;;;;;;5046742;28;905;-70
2023/06/20 11:22:44;;;;;;;;;;;21.40;76.70;;;;;;5048278;28;902;-70
2023/06/20 11:25:10;;;;;;;;;;;21.40;76.80;;;;;;5050961;28;1260;-70
2023/06/20 11:27:36;;;;;;;;;;;21.40;76.80;;;;;;5049698;28;901;-70
2023/06/20 11:30:01;;;;;;;;;;;21.40;76.80;;;;;;5049711;28;851;-69
2023/06/20 11:32:27;;;;;;;;;;;21.40;76.90;;;;;;5051393;28;859;-70
2023/06/20 11:34:53;;;;;;;;;;;21.40;76.90;;;;;;5050925;28;2112;-70
2023/06/20 11:37:19;;;;;;;;;;;21.40;77.00;;;;;;5052096;28;1284;-70
2023/06/20 11:39:44;;;;;;;;;;;21.40;77.30;;;;;;5047657;28;1947;-69
2023/06/20 11:42:16;;;;;;;;;;;21.40;77.20;;;;;;5049358;28;1543;-69
2023/06/20 11:44:41;;;;;;;;;;;21.40;77.10;;;;;;5045232;28;1366;-69
2023/06/20 11:47:07;;;;;;;;;;;21.40;76.90;;;;;;5039901;28;888;-69
2023/06/20 11:49:33;;;;;;;;;;;21.40;76.80;;;;;;5040703;28;1738;-70
2023/06/20 11:51:58;;;;;;;;;;;21.40;76.80;;;;;;5047656;28;821;-69
2023/06/20 11:54:24;;;;;;;;;;;21.40;76.70;;;;;;5048427;28;1328;-69
2023/06/20 11:56:50;;;;;;;;;;;21.40;76.80;;;;;;5048993;28;879;-69
2023/06/20 11:59:24;;;;;;;;;;;21.40;76.80;;;;;;5046502;28;1971;-68
2023/06/20 12:01:50;;;;;;;;;;;21.40;76.60;;;;;;5049335;28;829;-69
2023/06/20 12:04:19;;;;;;;;;;;21.40;76.60;;;;;;5046897;28;1264;-69
2023/06/20 12:06:45;;;;;;;;;;;21.40;76.80;;;;;;5049101;28;876;-69
2023/06/20 12:09:11;;;;;;;;;;;21.40;76.70;;;;;;5048207;28;812;-69
2023/06/20 12:11:50;;;;;;;;;;;21.40;76.80;;;;;;5048399;28;851;-69
2023/06/20 12:14:15;;;;;;;;;;;21.40;76.80;;;;;;5044309;28;1276;-69
2023/06/20 12:16:41;;;;;;;;;;;21.40;76.80;;;;;;5045294;28;875;-69
2023/06/20 12:19:06;;;;;;;;;;;21.40;76.80;;;;;;5032574;28;1957;-68
2023/06/20 12:21:32;;;;;;;;;;;21.30;76.70;;;;;;5047171;28;1641;-70
2023/06/20 12:23:58;;;;;;;;;;;21.30;76.70;;;;;;5049203;28;828;-70
2023/06/20 12:26:23;;;;;;;;;;;21.30;76.70;;;;;;5048238;28;1246;-70
2023/06/20 12:28:48;;;;;;;;;;;21.30;76.70;;;;;;5037731;28;1460;-69
2023/06/20 12:31:14;;;;;;;;;;;21.30;76.70;;;;;;5048172;28;931;-70
2023/06/20 12:33:39;;;;;;;;;;;21.30;76.70;;;;;;5036953;28;879;-71
2023/06/20 12:36:05;;;;;;;;;;;21.30;76.80;;;;;;5045716;28;1329;-69
2023/06/20 12:38:31;;;;;;;;;;;21.30;76.90;;;;;;5040362;28;2062;-69
2023/06/20 12:40:59;;;;;;;;;;;21.30;76.90;;;;;;5048034;28;819;-68
2023/06/20 12:43:25;;;;;;;;;;;21.30;76.90;;;;;;5048658;28;1333;-69
2023/06/20 12:45:52;;;;;;;;;;;21.30;76.90;;;;;;5048907;28;1262;-69
2023/06/20 12:48:17;;;;;;;;;;;21.30;76.90;;;;;;5048068;28;1237;-67
2023/06/20 12:50:43;;;;;;;;;;;21.30;77.00;;;;;;5046712;28;939;-67
2023/06/20 12:53:08;;;;;;;;;;;21.30;77.00;;;;;;5051551;28;1208;-68
2023/06/20 12:55:34;;;;;;;;;;;21.30;77.00;;;;;;5052186;28;1298;-68
2023/06/20 12:57:59;;;;;;;;;;;21.30;77.00;;;;;;5051254;28;1914;-68
2023/06/20 13:00:25;;;;;;;;;;;21.30;77.00;;;;;;5051390;28;1007;-67
2023/06/20 13:02:51;;;;;;;;;;;21.30;77.00;;;;;;5052317;28;878;-67
2023/06/20 13:05:16;;;;;;;;;;;21.30;76.90;;;;;;5051261;28;1242;-68
2023/06/20 13:07:42;;;;;;;;;;;21.30;76.90;;;;;;5051550;28;1050;-69
2023/06/20 13:10:07;;;;;;;;;;;21.30;76.80;;;;;;5048697;28;819;-69
2023/06/20 13:12:34;;;;;;;;;;;21.30;76.90;;;;;;5052475;28;842;-68
2023/06/20 13:15:00;;;;;;;;;;;21.30;76.80;;;;;;5052114;28;1353;-68
2023/06/20 13:17:26;;;;;;;;;;;21.30;76.90;;;;;;5051692;28;811;-69
2023/06/20 13:19:52;;;;;;;;;;;21.30;76.70;;;;;;5048887;28;1890;-68
2023/06/20 13:22:17;;;;;;;;;;;21.30;76.70;;;;;;5053980;28;849;-68
2023/06/20 13:24:44;;;;;;;;;;;21.40;76.80;;;;;;5051774;28;1244;-68
2023/06/20 13:27:11;;;;;;;;;;;21.40;76.70;;;;;;5050205;28;1365;-69
2023/06/20 13:29:36;;;;;;;;;;;21.30;76.70;;;;;;5053052;28;1234;-68
2023/06/20 13:32:02;;;;;;;;;;;21.30;76.60;;;;;;5053177;28;810;-68
2023/06/20 13:34:28;;;;;;;;;;;21.30;76.80;;;;;;5047504;28;1248;-68
2023/06/20 13:36:54;;;;;;;;;;;21.40;77.00;;;;;;5045644;28;1066;-68
2023/06/20 13:39:19;;;;;;;;;;;21.40;76.80;;;;;;5044032;28;1888;-68
2023/06/20 13:41:45;;;;;;;;;;;21.40;76.70;;;;;;5052647;28;777;-68
2023/06/20 13:44:10;;;;;;;;;;;21.40;76.60;;;;;;5044013;28;1311;-68
2023/06/20 13:46:36;;;;;;;;;;;21.30;76.50;;;;;;5051994;28;871;-68
2023/06/20 13:49:01;;;;;;;;;;;21.30;76.50;;;;;;5048719;28;838;-67
2023/06/20 13:51:27;;;;;;;;;;;21.30;76.50;;;;;;5046724;28;891;-67
2023/06/20 13:53:53;;;;;;;;;;;21.30;76.40;;;;;;5050650;28;844;-68
2023/06/20 13:56:18;;;;;;;;;;;21.30;76.50;;;;;;5049742;28;1286;-67
2023/06/20 13:58:44;;;;;;;;;;;21.30;76.40;;;;;;5050570;28;1918;-67
2023/06/20 14:01:09;;;;;;;;;;;21.30;76.40;;;;;;5047370;28;1246;-67
2023/06/20 14:03:35;;;;;;;;;;;21.30;76.40;;;;;;5049359;28;1062;-67
2023/06/20 14:06:01;;;;;;;;;;;21.30;76.40;;;;;;5051859;28;1254;-68
2023/06/20 14:08:26;;;;;;;;;;;21.30;76.40;;;;;;5051290;28;856;-67
2023/06/20 14:10:52;;;;;;;;;;;21.30;76.60;;;;;;5044558;28;913;-67
2023/06/20 14:13:17;;;;;;;;;;;21.40;77.20;;;;;;5050743;28;1058;-67
2023/06/20 14:15:43;;;;;;;;;;;21.40;77.10;;;;;;5052188;28;1236;-68
2023/06/20 14:18:08;;;;;;;;;;;21.40;77.00;;;;;;5049932;28;1894;-69
2023/06/20 14:20:37;;;;;;;;;;;21.50;77.00;;;;;;5049217;28;843;-69
2023/06/20 14:23:02;;;;;;;;;;;21.50;76.80;;;;;;5048258;28;864;-69
2023/06/20 14:25:28;;;;;;;;;;;21.50;76.50;;;;;;5049191;28;1256;-69
2023/06/20 14:27:53;;;;;;;;;;;21.50;76.40;;;;;;5050004;28;1581;-68
2023/06/20 14:30:19;;;;;;;;;;;21.50;76.30;;;;;;5050115;28;780;-68